createdAt,value
2016-09-21T00:00:42.237Z,84.92
2016-09-21T00:01:42.219Z,85.41
2016-09-21T00:02:42.541Z,85.31
2016-09-21T00:03:42.515Z,85.41
2016-09-21T00:04:42.504Z,85.41
2016-09-21T00:05:42.482Z,85.21
2016-09-21T00:06:42.136Z,85.5
2016-09-21T00:07:42.455Z,85.21
2016-09-21T00:08:42.445Z,85.79
2016-09-21T00:09:42.409Z,86.17
2016-09-21T00:10:42.077Z,85.98
2016-09-21T00:11:42.056Z,85.98
2016-09-21T00:12:42.375Z,85.79
2016-09-21T00:13:42.029Z,85.69
2016-09-21T00:14:42.326Z,85.98
2016-09-21T00:15:41.990Z,85.88
2016-09-21T00:16:41.972Z,85.88
2016-09-21T00:17:42.285Z,85.98
2016-09-21T00:18:42.279Z,86.27
2016-09-21T00:19:41.925Z,85.98
2016-09-21T00:20:42.233Z,86.36
2016-09-21T00:21:42.215Z,86.74
2016-09-21T00:22:42.203Z,86.65
2016-09-21T00:23:42.184Z,86.74
2016-09-21T00:24:42.160Z,86.74
2016-09-21T00:25:42.155Z,86.74
2016-09-21T00:26:41.811Z,86.94
2016-09-21T00:27:41.800Z,86.65
2016-09-21T00:28:41.778Z,86.74
2016-09-21T00:29:41.764Z,86.74
2016-09-21T00:30:41.747Z,86.7
2016-09-21T00:31:42.052Z,87.23
2016-09-21T00:32:42.035Z,87.66
2016-09-21T00:33:41.696Z,87.37
2016-09-21T00:34:42.015Z,87.56
2016-09-21T00:35:41.664Z,87.95
2016-09-21T00:36:41.966Z,87.37
2016-09-21T00:37:41.633Z,87.76
2016-09-21T00:38:41.618Z,87.56
2016-09-21T00:39:41.914Z,87.85
2016-09-21T00:40:41.578Z,88.33
2016-09-21T00:41:41.879Z,87.95
2016-09-21T00:42:41.547Z,87.95
2016-09-21T00:43:41.848Z,87.85
2016-09-21T00:44:41.851Z,88.23
2016-09-21T00:45:41.504Z,87.76
2016-09-21T00:46:41.808Z,88.04
2016-09-21T00:47:41.800Z,88.04
2016-09-21T00:48:41.776Z,88.23
2016-09-21T00:49:41.750Z,88.13
2016-09-21T00:50:41.741Z,88.81
2016-09-21T00:51:41.715Z,88.43
2016-09-21T00:52:41.709Z,87.85
2016-09-21T00:53:41.366Z,88.13
2016-09-21T00:54:41.672Z,88.04
2016-09-21T00:55:41.646Z,88.23
2016-09-21T00:56:41.638Z,87.85
2016-09-21T00:57:41.609Z,88.23
2016-09-21T00:58:41.610Z,87.76
2016-09-21T00:59:41.578Z,88.81
2016-09-21T01:00:41.578Z,88.13
2016-09-21T01:01:41.548Z,87.76
2016-09-21T01:02:41.213Z,87.62
2016-09-21T01:03:41.511Z,88.62
2016-09-21T01:04:41.498Z,88.81
2016-09-21T01:05:41.487Z,88.57
2016-09-21T01:06:41.472Z,88.04
2016-09-21T01:07:41.457Z,88.57
2016-09-21T01:08:41.428Z,88.48
2016-09-21T01:09:41.414Z,88.48
2016-09-21T01:10:41.088Z,88.38
2016-09-21T01:11:41.066Z,88.86
2016-09-21T01:12:41.366Z,88.19
2016-09-21T01:13:41.025Z,88.48
2016-09-21T01:14:41.005Z,88.57
2016-09-21T01:15:41.310Z,88.57
2016-09-21T01:16:41.309Z,88
2016-09-21T01:17:41.015Z,88.57
2016-09-21T01:18:40.949Z,88.57
2016-09-21T01:19:40.939Z,88.19
2016-09-21T01:20:41.239Z,88.38
2016-09-21T01:21:41.209Z,88.67
2016-09-21T01:22:40.873Z,88.57
2016-09-21T01:23:41.177Z,88.38
2016-09-21T01:24:41.158Z,88.48
2016-09-21T01:25:41.156Z,88.48
2016-09-21T01:26:40.802Z,88.48
2016-09-21T01:27:41.114Z,88.76
2016-09-21T01:28:41.092Z,88.48
2016-09-21T01:29:41.074Z,88.48
2016-09-21T01:30:41.063Z,88.67
2016-09-21T01:31:40.775Z,88.95
2016-09-21T01:32:41.027Z,88.95
2016-09-21T01:33:41.008Z,89.24
2016-09-21T01:34:40.995Z,89.24
2016-09-21T01:35:41.091Z,89.05
2016-09-21T01:36:40.956Z,89.15
2016-09-21T01:37:40.947Z,89.15
2016-09-21T01:38:40.604Z,89.15
2016-09-21T01:39:40.925Z,89.43
2016-09-21T01:40:41.005Z,89.62
2016-09-21T01:41:40.556Z,89.53
2016-09-21T01:42:40.867Z,89.72
2016-09-21T01:43:40.844Z,89.72
2016-09-21T01:44:40.828Z,89.91
2016-09-21T01:45:40.809Z,89.72
2016-09-21T01:46:40.810Z,89.62
2016-09-21T01:47:40.445Z,89.43
2016-09-21T01:48:40.438Z,89.91
2016-09-21T01:49:40.738Z,90.16
2016-09-21T01:50:40.397Z,90.1
2016-09-21T01:51:40.799Z,89.81
2016-09-21T01:52:40.690Z,90.01
2016-09-21T01:53:40.698Z,90.01
2016-09-21T01:54:40.655Z,90.2
2016-09-21T01:55:40.633Z,89.91
2016-09-21T01:56:40.297Z,89.87
2016-09-21T01:57:40.603Z,90.16
2016-09-21T01:58:40.594Z,90.2
2016-09-21T01:59:40.566Z,89.91
2016-09-21T02:00:40.544Z,89.81
2016-09-21T02:01:40.215Z,89.77
2016-09-21T02:02:40.507Z,89.67
2016-09-21T02:03:40.507Z,89.67
2016-09-21T02:04:40.488Z,89.67
2016-09-21T02:05:40.142Z,90.06
2016-09-21T02:06:40.140Z,89.58
2016-09-21T02:07:40.423Z,90.25
2016-09-21T02:08:40.417Z,89.87
2016-09-21T02:09:40.389Z,90.06
2016-09-21T02:10:40.387Z,89.67
2016-09-21T02:11:40.353Z,89.67
2016-09-21T02:12:40.023Z,89.87
2016-09-21T02:13:40.333Z,90.16
2016-09-21T02:14:39.986Z,89.96
2016-09-21T02:15:40.294Z,89.96
2016-09-21T02:16:40.272Z,90.34
2016-09-21T02:17:40.256Z,90.16
2016-09-21T02:18:39.924Z,90.53
2016-09-21T02:19:40.217Z,90.25
2016-09-21T02:20:40.217Z,90.34
2016-09-21T02:21:40.197Z,89.96
2016-09-21T02:22:40.180Z,90.73
2016-09-21T02:23:40.153Z,90.25
2016-09-21T02:24:40.140Z,90.34
2016-09-21T02:25:40.116Z,90.44
2016-09-21T02:26:39.777Z,90.73
2016-09-21T02:27:40.083Z,90.53
2016-09-21T02:28:39.757Z,90.53
2016-09-21T02:29:39.737Z,90.92
2016-09-21T02:30:39.716Z,91.49
2016-09-21T02:31:40.009Z,90.92
2016-09-21T02:32:39.674Z,91.11
2016-09-21T02:33:39.974Z,91.49
2016-09-21T02:34:39.966Z,91.68
2016-09-21T02:35:39.620Z,91.78
2016-09-21T02:36:39.921Z,91.88
2016-09-21T02:37:39.911Z,91.68
2016-09-21T02:38:39.587Z,91.39
2016-09-21T02:39:39.887Z,91.39
2016-09-21T02:40:39.860Z,91.88
2016-09-21T02:41:39.516Z,91.68
2016-09-21T02:42:39.503Z,91.59
2016-09-21T02:43:39.485Z,91.49
2016-09-21T02:44:39.472Z,92.25
2016-09-21T02:45:39.456Z,91.88
2016-09-21T02:46:39.757Z,91.78
2016-09-21T02:47:39.787Z,91.97
2016-09-21T02:48:39.399Z,91.59
2016-09-21T02:49:39.483Z,91.88
2016-09-21T02:50:39.365Z,91.49
2016-09-21T02:51:39.395Z,91.97
2016-09-21T02:52:39.656Z,91.78
2016-09-21T02:53:39.730Z,92.16
2016-09-21T02:54:39.615Z,92.3
2016-09-21T02:55:39.314Z,92.3
2016-09-21T02:56:39.585Z,92.35
2016-09-21T02:57:39.593Z,91.83
2016-09-21T02:58:39.227Z,92.02
2016-09-21T02:59:39.546Z,92.21
2016-09-21T03:00:39.188Z,92.21
2016-09-21T03:01:39.516Z,91.93
2016-09-21T03:02:39.483Z,92.59
2016-09-21T03:03:39.468Z,93.12
2016-09-21T03:04:39.123Z,92.25
2016-09-21T03:05:39.452Z,91.68
2016-09-21T03:06:39.414Z,92.07
2016-09-21T03:07:39.391Z,92.11
2016-09-21T03:08:39.371Z,92.59
2016-09-21T03:09:39.358Z,92.11
2016-09-21T03:10:39.348Z,92.21
2016-09-21T03:11:39.325Z,92.21
2016-09-21T03:12:39.311Z,92.02
2016-09-21T03:13:39.288Z,92.5
2016-09-21T03:14:39.375Z,92.21
2016-09-21T03:15:39.273Z,92.21
2016-09-21T03:16:38.908Z,92.3
2016-09-21T03:17:39.212Z,92.69
2016-09-21T03:18:39.199Z,92.69
2016-09-21T03:19:39.178Z,92.5
2016-09-21T03:20:39.192Z,93.26
2016-09-21T03:21:39.193Z,92.97
2016-09-21T03:22:39.138Z,93.36
2016-09-21T03:23:39.108Z,93.36
2016-09-21T03:24:39.096Z,93.36
2016-09-21T03:25:39.101Z,92.97
2016-09-21T03:26:39.067Z,93.16
2016-09-21T03:27:39.040Z,93.26
2016-09-21T03:28:39.015Z,92.88
2016-09-21T03:29:39.067Z,93.16
2016-09-21T03:30:38.667Z,93.26
2016-09-21T03:31:38.972Z,93.36
2016-09-21T03:32:38.629Z,93.16
2016-09-21T03:33:38.935Z,93.16
2016-09-21T03:34:38.595Z,92.88
2016-09-21T03:35:38.906Z,92.69
2016-09-21T03:36:38.886Z,92.59
2016-09-21T03:37:38.864Z,93.36
2016-09-21T03:38:38.532Z,93.36
2016-09-21T03:39:38.525Z,93.07
2016-09-21T03:40:38.809Z,93.07
2016-09-21T03:41:38.474Z,92.79
2016-09-21T03:42:38.457Z,93.26
2016-09-21T03:43:38.755Z,92.88
2016-09-21T03:44:38.804Z,93.16
2016-09-21T03:45:38.727Z,93.26
2016-09-21T03:46:38.703Z,93.07
2016-09-21T03:47:38.687Z,93.07
2016-09-21T03:48:38.676Z,93.36
2016-09-21T03:49:38.655Z,93.07
2016-09-21T03:50:38.637Z,92.88
2016-09-21T03:51:38.630Z,93.07
2016-09-21T03:52:38.278Z,92.88
2016-09-21T03:53:38.576Z,92.88
2016-09-21T03:54:38.576Z,92.97
2016-09-21T03:55:38.543Z,93.16
2016-09-21T03:56:38.525Z,93.07
2016-09-21T03:57:38.182Z,93.16
2016-09-21T03:58:38.494Z,93.26
2016-09-21T03:59:38.469Z,93.16
2016-09-21T04:00:38.473Z,92.88
2016-09-21T04:01:38.131Z,93.16
2016-09-21T04:02:38.418Z,93.45
2016-09-21T04:03:38.400Z,93.26
2016-09-21T04:04:38.382Z,93.65
2016-09-21T04:05:38.375Z,93.6
2016-09-21T04:06:38.364Z,93.55
2016-09-21T04:07:38.016Z,92.88
2016-09-21T04:08:37.993Z,93.16
2016-09-21T04:09:38.293Z,93.65
2016-09-21T04:10:38.307Z,93.65
2016-09-21T04:11:38.267Z,93.6
2016-09-21T04:12:38.253Z,93.65
2016-09-21T04:13:37.909Z,93.31
2016-09-21T04:14:38.214Z,93.45
2016-09-21T04:15:37.877Z,93.74
2016-09-21T04:16:38.189Z,93.45
2016-09-21T04:17:38.152Z,93.16
2016-09-21T04:18:37.822Z,93.02
2016-09-21T04:19:37.803Z,93.5
2016-09-21T04:20:38.107Z,93.74
2016-09-21T04:21:38.090Z,93.55
2016-09-21T04:22:38.074Z,93.79
2016-09-21T04:23:38.057Z,93.31
2016-09-21T04:24:38.031Z,93.41
2016-09-21T04:25:38.010Z,93.6
2016-09-21T04:26:38.046Z,93.79
2016-09-21T04:27:37.662Z,93.79
2016-09-21T04:28:37.964Z,93.79
2016-09-21T04:29:37.947Z,93.41
2016-09-21T04:30:37.929Z,93.41
2016-09-21T04:31:37.585Z,93.88
2016-09-21T04:32:37.888Z,93.88
2016-09-21T04:33:37.873Z,93.98
2016-09-21T04:34:37.859Z,94.36
2016-09-21T04:35:37.531Z,94.27
2016-09-21T04:36:37.509Z,94.74
2016-09-21T04:37:37.806Z,94.17
2016-09-21T04:38:37.809Z,94.27
2016-09-21T04:39:37.762Z,93.79
2016-09-21T04:40:37.753Z,94.55
2016-09-21T04:41:37.736Z,94.07
2016-09-21T04:42:37.389Z,94.36
2016-09-21T04:43:37.707Z,93.88
2016-09-21T04:44:37.377Z,93.7
2016-09-21T04:45:37.672Z,94.36
2016-09-21T04:46:37.328Z,94.36
2016-09-21T04:47:37.627Z,94.46
2016-09-21T04:48:37.610Z,94.55
2016-09-21T04:49:37.590Z,94.84
2016-09-21T04:50:37.250Z,94.55
2016-09-21T04:51:37.559Z,94.55
2016-09-21T04:52:37.531Z,95.12
2016-09-21T04:53:37.526Z,94.74
2016-09-21T04:54:37.180Z,95.03
2016-09-21T04:55:37.171Z,95.32
2016-09-21T04:56:37.147Z,95.41
2016-09-21T04:57:37.127Z,95.12
2016-09-21T04:58:37.458Z,95.12
2016-09-21T04:59:37.091Z,95.12
2016-09-21T05:00:37.406Z,95.61
2016-09-21T05:01:37.381Z,95.32
2016-09-21T05:02:37.364Z,96.17
2016-09-21T05:03:37.340Z,95.89
2016-09-21T05:04:37.003Z,96.37
2016-09-21T05:05:37.307Z,96.66
2016-09-21T05:06:37.286Z,96.37
2016-09-21T05:07:36.948Z,96.46
2016-09-21T05:08:37.250Z,96.37
2016-09-21T05:09:37.239Z,96.42
2016-09-21T05:10:36.901Z,96.22
2016-09-21T05:11:37.189Z,96.56
2016-09-21T05:12:37.182Z,96.56
2016-09-21T05:13:36.840Z,96.37
2016-09-21T05:14:37.141Z,96.46
2016-09-21T05:15:37.143Z,96.56
2016-09-21T05:16:37.108Z,96.46
2016-09-21T05:17:37.085Z,96.27
2016-09-21T05:18:37.079Z,96.75
2016-09-21T05:19:37.061Z,96.56
2016-09-21T05:20:37.038Z,96.27
2016-09-21T05:21:37.015Z,96.37
2016-09-21T05:22:36.682Z,96.37
2016-09-21T05:23:36.980Z,96.94
2016-09-21T05:24:36.970Z,96.75
2016-09-21T05:25:36.959Z,96.37
2016-09-21T05:26:36.926Z,96.37
2016-09-21T05:27:36.584Z,96.75
2016-09-21T05:28:36.578Z,96.37
2016-09-21T05:29:36.867Z,96.46
2016-09-21T05:30:36.859Z,96.17
2016-09-21T05:31:36.841Z,95.98
2016-09-21T05:32:36.830Z,95.98
2016-09-21T05:33:36.478Z,95.89
2016-09-21T05:34:36.781Z,96.46
2016-09-21T05:35:36.451Z,96.08
2016-09-21T05:36:36.757Z,95.98
2016-09-21T05:37:36.732Z,96.37
2016-09-21T05:38:36.389Z,95.79
2016-09-21T05:39:36.366Z,95.03
2016-09-21T05:40:36.352Z,95.41
2016-09-21T05:41:36.670Z,95.12
2016-09-21T05:42:36.321Z,95.51
2016-09-21T05:43:36.619Z,95.41
2016-09-21T05:44:36.277Z,95.12
2016-09-21T05:45:36.581Z,94.65
2016-09-21T05:46:36.566Z,95.22
2016-09-21T05:47:36.549Z,95.12
2016-09-21T05:48:36.207Z,95.41
2016-09-21T05:49:36.514Z,95.36
2016-09-21T05:50:36.497Z,94.98
2016-09-21T05:51:36.166Z,94.22
2016-09-21T05:52:36.456Z,94.41
2016-09-21T05:53:36.446Z,94.22
2016-09-21T05:54:36.430Z,94.31
2016-09-21T05:55:36.405Z,93.93
2016-09-21T05:56:36.387Z,94.31
2016-09-21T05:57:36.047Z,94.02
2016-09-21T05:58:36.356Z,94.31
2016-09-21T05:59:36.348Z,94.41
2016-09-21T06:00:35.989Z,94.22
2016-09-21T06:01:36.295Z,94.02
2016-09-21T06:02:36.287Z,94.07
2016-09-21T06:03:36.265Z,93.79
2016-09-21T06:04:36.260Z,93.6
2016-09-21T06:05:36.225Z,93.6
2016-09-21T06:06:36.213Z,94.31
2016-09-21T06:07:36.188Z,93.74
2016-09-21T06:08:36.174Z,94.17
2016-09-21T06:09:36.156Z,93.6
2016-09-21T06:10:36.146Z,93.21
2016-09-21T06:11:36.126Z,92.93
2016-09-21T06:12:35.796Z,93.02
2016-09-21T06:13:36.085Z,93.12
2016-09-21T06:14:36.079Z,93.21
2016-09-21T06:15:36.065Z,93.31
2016-09-21T06:16:36.030Z,92.16
2016-09-21T06:17:36.017Z,91.78
2016-09-21T06:18:35.997Z,91.78
2016-09-21T06:19:35.663Z,91.97
2016-09-21T06:20:35.965Z,92.64
2016-09-21T06:21:35.629Z,91.97
2016-09-21T06:22:35.609Z,91.78
2016-09-21T06:23:35.917Z,91.68
2016-09-21T06:24:35.897Z,91.78
2016-09-21T06:25:35.890Z,91.3
2016-09-21T06:26:35.544Z,90.82
2016-09-21T06:27:35.536Z,90.63
2016-09-21T06:28:35.827Z,90.34
2016-09-21T06:29:35.809Z,89.67
2016-09-21T06:30:35.799Z,89.67
2016-09-21T06:31:35.776Z,89.15
2016-09-21T06:32:35.757Z,89.24
2016-09-21T06:33:35.416Z,89.24
2016-09-21T06:34:35.400Z,89.24
2016-09-21T06:35:35.386Z,88.86
2016-09-21T06:36:35.379Z,88.57
2016-09-21T06:37:36.638Z,88.19
2016-09-21T06:38:35.335Z,88.38
2016-09-21T06:39:35.639Z,87.9
2016-09-21T06:40:35.417Z,88.04
2016-09-21T06:41:35.285Z,87.76
2016-09-21T06:42:35.593Z,87.47
2016-09-21T06:43:35.569Z,87.47
2016-09-21T06:44:35.656Z,86.99
2016-09-21T06:45:35.220Z,86.74
2016-09-21T06:46:35.525Z,85.98
2016-09-21T06:47:35.189Z,83.53
2016-09-21T06:48:35.495Z,80.83
2016-09-21T06:49:35.483Z,77.65
2016-09-21T06:50:35.255Z,76.19
2016-09-21T06:51:35.434Z,74.21
2016-09-21T06:52:35.104Z,74.3
2016-09-21T06:53:35.415Z,74.44
2016-09-21T06:54:35.401Z,73.86
2016-09-21T06:55:35.412Z,73.57
2016-09-21T06:56:35.373Z,73.77
2016-09-21T06:57:35.024Z,73.38
2016-09-21T06:58:35.446Z,72.9
2016-09-21T06:59:34.994Z,72.74
2016-09-21T07:00:35.003Z,72.74
2016-09-21T07:01:35.328Z,73.13
2016-09-21T07:02:35.364Z,72.94
2016-09-21T07:03:35.261Z,73.03
2016-09-21T07:04:35.305Z,72.84
2016-09-21T07:05:35.247Z,72.36
2016-09-21T07:06:35.218Z,71.97
2016-09-21T07:07:35.311Z,71.04
2016-09-21T07:08:35.200Z,69.54
2016-09-21T07:09:34.861Z,68.77
2016-09-21T07:10:34.958Z,69.09
2016-09-21T07:11:34.834Z,68.04
2016-09-21T07:12:35.155Z,67.49
2016-09-21T07:13:34.808Z,67.78
2016-09-21T07:14:35.166Z,67.14
2016-09-21T07:15:34.788Z,66.56
2016-09-21T07:16:35.185Z,66.59
2016-09-21T07:17:35.135Z,65.91
2016-09-21T07:18:35.073Z,66.2
2016-09-21T07:19:34.721Z,65.91
2016-09-21T07:20:34.767Z,65.53
2016-09-21T07:21:35.023Z,66.11
2016-09-21T07:22:35.057Z,66.4
2016-09-21T07:23:34.994Z,66.14
2016-09-21T07:24:34.979Z,64.59
2016-09-21T07:25:34.653Z,65.14
2016-09-21T07:26:34.643Z,65.72
2016-09-21T07:27:34.953Z,65.72
2016-09-21T07:28:34.938Z,66.08
2016-09-21T07:29:34.933Z,66.85
2016-09-21T07:30:34.936Z,67.97
2016-09-21T07:31:34.580Z,69.93
2016-09-21T07:32:34.575Z,70.41
2016-09-21T07:33:34.561Z,69.54
2016-09-21T07:34:34.885Z,70.12
2016-09-21T07:35:34.865Z,70.09
2016-09-21T07:36:34.577Z,70.28
2016-09-21T07:37:34.556Z,69.64
2016-09-21T07:38:34.823Z,69.25
2016-09-21T07:39:34.828Z,69.09
2016-09-21T07:40:34.502Z,68.87
2016-09-21T07:41:34.803Z,69.45
2016-09-21T07:42:34.787Z,70.09
2016-09-21T07:43:34.470Z,69.54
2016-09-21T07:44:34.775Z,68.99
2016-09-21T07:45:34.772Z,68.45
2016-09-21T07:46:34.756Z,67.23
2016-09-21T07:47:34.757Z,66.36
2016-09-21T07:48:34.736Z,66.08
2016-09-21T07:49:34.741Z,65.37
2016-09-21T07:50:34.758Z,65.17
2016-09-21T07:51:34.724Z,64.14
2016-09-21T07:52:34.722Z,64.31
2016-09-21T07:53:34.709Z,64.11
2016-09-21T07:54:34.392Z,63.37
2016-09-21T07:55:34.379Z,62.44
2016-09-21T07:56:34.701Z,62.47
2016-09-21T07:57:34.696Z,61.43
2016-09-21T07:58:34.780Z,61.69
2016-09-21T07:59:34.683Z,60.75
2016-09-21T08:00:34.360Z,60.78
2016-09-21T08:01:34.363Z,58.88
2016-09-21T08:02:34.687Z,58.14
2016-09-21T08:03:34.659Z,58.14
2016-09-21T08:04:34.709Z,57.09
2016-09-21T08:05:34.652Z,56.18
2016-09-21T08:06:34.730Z,55.53
2016-09-21T08:07:34.649Z,54.75
2016-09-21T08:08:34.333Z,55.07
2016-09-21T08:09:34.329Z,54.97
2016-09-21T08:10:34.646Z,54.13
2016-09-21T08:11:34.639Z,54.22
2016-09-21T08:12:34.329Z,54.88
2016-09-21T08:13:34.645Z,55.89
2016-09-21T08:14:34.312Z,56.15
2016-09-21T08:15:34.641Z,56.71
2016-09-21T08:16:34.299Z,56.05
2016-09-21T08:17:34.617Z,57.19
2016-09-21T08:18:34.648Z,57.45
2016-09-21T08:19:34.297Z,57.26
2016-09-21T08:20:34.613Z,56.64
2016-09-21T08:21:34.617Z,56.51
2016-09-21T08:22:34.620Z,56.74
2016-09-21T08:23:34.591Z,56.54
2016-09-21T08:24:34.604Z,56.09
2016-09-21T08:25:34.649Z,56.09
2016-09-21T08:26:34.588Z,56.35
2016-09-21T08:27:34.266Z,55.6
2016-09-21T08:28:34.588Z,55.89
2016-09-21T08:29:34.638Z,55.24
2016-09-21T08:30:34.270Z,54.68
2016-09-21T08:31:34.260Z,54.42
2016-09-21T08:32:34.255Z,54
2016-09-21T08:33:34.586Z,55.5
2016-09-21T08:34:34.570Z,56.15
2016-09-21T08:35:34.253Z,56.97
2016-09-21T08:36:34.265Z,57.65
2016-09-21T08:37:34.616Z,56.59
2016-09-21T08:38:34.317Z,55.93
2016-09-21T08:39:34.728Z,55.87
2016-09-21T08:40:34.241Z,55.11
2016-09-21T08:41:34.236Z,54.53
2016-09-21T08:42:34.550Z,55.08
2016-09-21T08:43:34.239Z,55.87
2016-09-21T08:44:34.555Z,56.18
2016-09-21T08:45:34.224Z,55.21
2016-09-21T08:46:34.556Z,55.04
2016-09-21T08:47:34.539Z,55.14
2016-09-21T08:48:34.227Z,54.58
2016-09-21T08:49:34.545Z,54.22
2016-09-21T08:50:34.537Z,54.13
2016-09-21T08:51:34.227Z,53.86
2016-09-21T08:52:34.546Z,53.47
2016-09-21T08:53:34.539Z,54.03
2016-09-21T08:54:34.210Z,53.83
2016-09-21T08:55:34.525Z,53.64
2016-09-21T08:56:34.522Z,53.25
2016-09-21T08:57:34.536Z,52.89
2016-09-21T08:58:34.538Z,53.28
2016-09-21T08:59:34.527Z,52.23
2016-09-21T09:00:34.544Z,52.5
2016-09-21T09:01:34.211Z,52.57
2016-09-21T09:02:34.206Z,52.72
2016-09-21T09:03:34.529Z,52.23
2016-09-21T09:04:34.529Z,52.31
2016-09-21T09:05:34.526Z,55.04
2016-09-21T09:06:34.201Z,56.1
2016-09-21T09:07:34.520Z,55.87
2016-09-21T09:08:34.187Z,55.14
2016-09-21T09:09:34.195Z,53.81
2016-09-21T09:10:34.206Z,52.76
2016-09-21T09:11:34.516Z,52.4
2016-09-21T09:12:34.506Z,52.55
2016-09-21T09:13:34.506Z,52.06
2016-09-21T09:14:34.510Z,50.6
2016-09-21T09:15:34.510Z,50.99
2016-09-21T09:16:34.190Z,51.41
2016-09-21T09:17:34.496Z,50.92
2016-09-21T09:18:34.509Z,50.73
2016-09-21T09:19:34.177Z,50.85
2016-09-21T09:20:34.508Z,50.82
2016-09-21T09:21:34.524Z,50.16
2016-09-21T09:22:34.507Z,49.85
2016-09-21T09:23:34.563Z,50.14
2016-09-21T09:24:34.492Z,50.41
2016-09-21T09:25:34.509Z,49.17
2016-09-21T09:26:34.182Z,49.46
2016-09-21T09:27:34.509Z,49.66
2016-09-21T09:28:34.509Z,48.61
2016-09-21T09:29:34.184Z,46.86
2016-09-21T09:30:34.508Z,46.54
2016-09-21T09:31:34.182Z,47.59
2016-09-21T09:32:34.513Z,48.25
2016-09-21T09:33:34.508Z,48.95
2016-09-21T09:34:34.195Z,48.88
2016-09-21T09:35:34.498Z,50.63
2016-09-21T09:36:34.176Z,50.73
2016-09-21T09:37:34.499Z,50.56
2016-09-21T09:38:34.498Z,49.51
2016-09-21T09:39:34.173Z,49.34
2016-09-21T09:40:34.502Z,49.46
2016-09-21T09:41:34.172Z,49.63
2016-09-21T09:42:34.496Z,49
2016-09-21T09:43:34.489Z,49.78
2016-09-21T09:44:34.520Z,50.77
2016-09-21T09:45:34.484Z,50.77
2016-09-21T09:46:34.575Z,50.6
2016-09-21T09:47:34.166Z,49.78
2016-09-21T09:48:34.494Z,49.61
2016-09-21T09:49:34.169Z,48.58
2016-09-21T09:50:34.481Z,48.58
2016-09-21T09:51:34.160Z,48.71
2016-09-21T09:52:34.171Z,47.56
2016-09-21T09:53:34.489Z,47.27
2016-09-21T09:54:34.471Z,47.95
2016-09-21T09:55:34.152Z,47.36
2016-09-21T09:56:34.483Z,48.1
2016-09-21T09:57:34.479Z,49.37
2016-09-21T09:58:34.481Z,50.04
2016-09-21T09:59:34.461Z,50.34
2016-09-21T10:00:34.464Z,49.9
2016-09-21T10:01:34.140Z,49.12
2016-09-21T10:02:34.143Z,49.05
2016-09-21T10:03:34.459Z,48.1
2016-09-21T10:04:34.457Z,47.42
2016-09-21T10:05:34.459Z,47.9
2016-09-21T10:06:34.473Z,47.75
2016-09-21T10:07:34.141Z,47.07
2016-09-21T10:08:34.452Z,46.76
2016-09-21T10:09:34.443Z,46.51
2016-09-21T10:10:34.446Z,46.64
2016-09-21T10:11:34.433Z,47.86
2016-09-21T10:12:34.451Z,48.61
2016-09-21T10:13:34.444Z,47.96
2016-09-21T10:14:34.432Z,48.36
2016-09-21T10:15:34.436Z,47.8
2016-09-21T10:16:34.109Z,48.49
2016-09-21T10:17:34.426Z,49.32
2016-09-21T10:18:34.094Z,47.98
2016-09-21T10:19:34.432Z,48.41
2016-09-21T10:20:34.407Z,47.95
2016-09-21T10:21:34.401Z,48.29
2016-09-21T10:22:34.404Z,48.97
2016-09-21T10:23:34.409Z,48.12
2016-09-21T10:24:34.071Z,48.78
2016-09-21T10:25:34.078Z,47.27
2016-09-21T10:26:34.061Z,45.68
2016-09-21T10:27:34.386Z,45.29
2016-09-21T10:28:34.373Z,46.2
2016-09-21T10:29:34.050Z,46.51
2016-09-21T10:30:34.378Z,46.93
2016-09-21T10:31:34.368Z,47.81
2016-09-21T10:32:34.370Z,48.03
2016-09-21T10:33:34.351Z,47.56
2016-09-21T10:34:34.354Z,46.15
2016-09-21T10:35:34.341Z,46.2
2016-09-21T10:36:34.022Z,45.51
2016-09-21T10:37:34.344Z,46.02
2016-09-21T10:38:34.332Z,45.44
2016-09-21T10:39:34.322Z,45.47
2016-09-21T10:40:34.326Z,47.27
2016-09-21T10:41:34.309Z,47.42
2016-09-21T10:42:34.323Z,47.42
2016-09-21T10:43:34.319Z,47.44
2016-09-21T10:44:33.983Z,47
2016-09-21T10:45:34.304Z,45.78
2016-09-21T10:46:34.303Z,46
2016-09-21T10:47:34.300Z,44.89
2016-09-21T10:48:33.970Z,47.27
2016-09-21T10:49:34.271Z,49.8
2016-09-21T10:50:33.953Z,51.93
2016-09-21T10:51:34.271Z,52.44
2016-09-21T10:52:34.262Z,51.76
2016-09-21T10:53:34.249Z,51.5
2016-09-21T10:54:33.928Z,52.1
2016-09-21T10:55:34.248Z,52.46
2016-09-21T10:56:34.242Z,52.63
2016-09-21T10:57:33.914Z,52.36
2016-09-21T10:58:34.213Z,51.45
2016-09-21T10:59:33.891Z,50.34
2016-09-21T11:00:34.211Z,49.34
2016-09-21T11:01:34.197Z,47.83
2016-09-21T11:02:33.878Z,47.56
2016-09-21T11:03:34.189Z,47.81
2016-09-21T11:04:34.179Z,47.64
2016-09-21T11:05:34.169Z,47.91
2016-09-21T11:06:33.841Z,47.54
2016-09-21T11:07:33.861Z,47.3
2016-09-21T11:08:34.149Z,48.22
2016-09-21T11:09:34.149Z,47.1
2016-09-21T11:10:33.821Z,47.03
2016-09-21T11:11:34.154Z,46.73
2016-09-21T11:12:34.122Z,46.05
2016-09-21T11:13:33.802Z,45.95
2016-09-21T11:14:34.120Z,46.44
2016-09-21T11:15:34.113Z,46.34
2016-09-21T11:16:33.774Z,46.47
2016-09-21T11:17:34.088Z,46.44
2016-09-21T11:18:33.776Z,46.37
2016-09-21T11:19:34.089Z,47.98
2016-09-21T11:20:34.081Z,48.15
2016-09-21T11:21:34.061Z,47.76
2016-09-21T11:22:34.061Z,46.05
2016-09-21T11:23:34.049Z,46.15
2016-09-21T11:24:34.043Z,45.95
2016-09-21T11:25:34.029Z,47.81
2016-09-21T11:26:34.029Z,47.81
2016-09-21T11:27:33.710Z,47.86
2016-09-21T11:28:34.011Z,47.49
2016-09-21T11:29:33.694Z,46.17
2016-09-21T11:30:34.005Z,44.64
2016-09-21T11:31:34.001Z,44.54
2016-09-21T11:32:33.992Z,44.93
2016-09-21T11:33:33.993Z,44.93
2016-09-21T11:34:33.972Z,43.47
2016-09-21T11:35:33.645Z,44.13
2016-09-21T11:36:33.971Z,44.54
2016-09-21T11:37:33.962Z,45.05
2016-09-21T11:38:34.003Z,44.54
2016-09-21T11:39:33.937Z,44.93
2016-09-21T11:40:33.941Z,45.32
2016-09-21T11:41:33.927Z,46.32
2016-09-21T11:42:33.929Z,46.67
2016-09-21T11:43:33.917Z,47.15
2016-09-21T11:44:33.901Z,47.52
2016-09-21T11:45:33.593Z,47.61
2016-09-21T11:46:33.911Z,48.54
2016-09-21T11:47:33.885Z,47.71
2016-09-21T11:48:33.874Z,47.13
2016-09-21T11:49:33.558Z,47.15
2016-09-21T11:50:33.545Z,46.4
2016-09-21T11:51:33.531Z,46.84
2016-09-21T11:52:33.862Z,46.64
2016-09-21T11:53:33.531Z,47.13
2016-09-21T11:54:33.837Z,46.86
2016-09-21T11:55:33.828Z,46.78
2016-09-21T11:56:33.823Z,46.32
2016-09-21T11:57:33.830Z,45.98
2016-09-21T11:58:33.811Z,44.9
2016-09-21T11:59:33.810Z,45.47
2016-09-21T12:00:33.800Z,45.81
2016-09-21T12:01:33.783Z,46.42
2016-09-21T12:02:33.781Z,45.95
2016-09-21T12:03:33.783Z,46.37
2016-09-21T12:04:33.790Z,46.37
2016-09-21T12:05:33.824Z,45.95
2016-09-21T12:06:33.757Z,46.05
2016-09-21T12:07:33.544Z,45.98
2016-09-21T12:08:33.746Z,46.3
2016-09-21T12:09:33.757Z,45.61
2016-09-21T12:10:33.731Z,45.42
2016-09-21T12:11:33.421Z,45.05
2016-09-21T12:12:33.705Z,44.68
2016-09-21T12:13:33.701Z,47.05
2016-09-21T12:14:33.699Z,47.23
2016-09-21T12:15:33.790Z,46.11
2016-09-21T12:16:33.682Z,45.28
2016-09-21T12:17:33.676Z,45.1
2016-09-21T12:18:33.671Z,45.68
2016-09-21T12:19:33.658Z,46.05
2016-09-21T12:20:33.664Z,46.98
2016-09-21T12:21:33.651Z,48.08
2016-09-21T12:22:33.637Z,47.81
2016-09-21T12:23:33.309Z,48.64
2016-09-21T12:24:33.623Z,48.8
2016-09-21T12:25:33.617Z,49.32
2016-09-21T12:26:33.287Z,48.32
2016-09-21T12:27:33.597Z,48.25
2016-09-21T12:28:33.604Z,48.25
2016-09-21T12:29:33.590Z,47.61
2016-09-21T12:30:33.271Z,46.47
2016-09-21T12:31:33.577Z,46.69
2016-09-21T12:32:33.563Z,46.03
2016-09-21T12:33:33.251Z,46.11
2016-09-21T12:34:33.552Z,45.91
2016-09-21T12:35:33.543Z,45.91
2016-09-21T12:36:33.539Z,46.23
2016-09-21T12:37:33.529Z,45.74
2016-09-21T12:38:33.510Z,45.57
2016-09-21T12:39:33.513Z,45.1
2016-09-21T12:40:33.515Z,47.05
2016-09-21T12:41:33.175Z,48.15
2016-09-21T12:42:33.486Z,48.95
2016-09-21T12:43:33.171Z,49.7
2016-09-21T12:44:33.261Z,49.44
2016-09-21T12:45:33.461Z,48.25
2016-09-21T12:46:33.135Z,47.66
2016-09-21T12:47:33.451Z,47.49
2016-09-21T12:48:33.531Z,46.08
2016-09-21T12:49:33.121Z,45.25
2016-09-21T12:50:33.426Z,44.89
2016-09-21T12:51:33.442Z,46.37
2016-09-21T12:52:33.105Z,47.93
2016-09-21T12:53:33.450Z,49.24
2016-09-21T12:54:33.489Z,48.88